LHSM/SOB METAR and TAF weather

Enter ICAO airport designator
Station Type Date Time Source
LHSM METAR 2019/08/24 22:15 UTC NOAA

LHSM 242215Z AUTO 31007KT 9999 FEW082 SCT106 //////CB 21/18 Q1020


Station Type Date Time Source
LHSM Decoded METAR 2019/08/24 22:15 UTC NOAA

Station name not available
Aug 24, 2019 - 06:15 PM EDT / 2019.08.24 2215 UTC
Wind: from the NW (310 degrees) at 8 MPH (7 KT):0
Visibility: greater than 7 mile(s):0
Sky conditions: partly cloudy
Weather: Cumulonimbus clouds observed
Temperature: 69 F (21 C)
Dew Point: 64 F (18 C)
Relative Humidity: 82%
Pressure (altimeter): 30.12 in. Hg (1020 hPa)
ob: LHSM 242215Z AUTO 31007KT 9999 FEW082 SCT106 //////CB 21/18 Q1020
cycle: 22

Station Type Date Time Source
LHSM TAF UTC NOAA

Error!

Example: see airport list